Weather observations for the past three days for
Unalakleet
| Date | Time (akdt) | Wind (kph) | Vis. (km) | Weather | Sky Cond. | Temperature (ºC) | Relative Humidity | Wind Chill (°C) | Heat Index (°C) | Pressure | Precipitation (cm) | ||||||
|---|---|---|---|---|---|---|---|---|---|---|---|---|---|---|---|---|---|
| Air | Dwpt | 6 hour | altimeter (cm) | sea level (mb) | 1 hr | 3 hr | 6 hr | ||||||||||
| Max. | Min. | ||||||||||||||||
| 07 | 23:56 | N 11 | 16.09 | A Few Clouds | FEW047 | -2.8 | -6.1 | 78% | -7 | 76.38 | 1018.6 | ||||||
| 07 | 22:56 | NW 6 | 16.09 | A Few Clouds | FEW045 | 0 | -5.6 | 66% | 76.38 | 1018.6 | |||||||
| 07 | 21:56 | SE 9 | 8.05 | Light Rain | FEW022 SCT028 BKN036 | 1.7 | -5.6 | 1.7 | -1.7 | 59% | -1 | 76.35 | 1018.4 | ||||
| 07 | 20:56 | NW 22 | 16.09 | Mostly Cloudy | FEW041 SCT048 BKN060 | 0 | -5 | 69% | -5 | 76.35 | 1018.4 | ||||||
| 07 | 19:56 | NW 30 G 43 | 14.48 | Light Snow | OVC060 | -0.6 | -4.4 | 76% | -7 | 76.4 | 1018.8 | ||||||
| 07 | 18:56 | NW 30 | 16.09 | Overcast | BKN045 OVC049 | -0.6 | -5 | 72% | -7 | 76.4 | 1018.9 | ||||||
| 07 | 17:56 | NW 28 | 16.09 | Overcast | OVC049 | -0.6 | -5 | 72% | -7 | 76.45 | 1019.5 | ||||||
| 07 | 16:56 | NW 28 | 16.09 | Mostly Cloudy | BKN047 | -1.1 | -5 | 75% | -7 | 76.48 | 1019.9 | ||||||
| 07 | 15:56 | NW 22 | 16.09 | Mostly Cloudy | FEW039 BKN075 | -1.1 | -5.6 | -1.1 | -3.9 | 72% | -7 | 76.5 | 1020.4 | ||||
| 07 | 14:56 | NW 26 | 16.09 | Overcast | OVC075 | -2.2 | -6.1 | 75% | -8 | 76.53 | 1020.6 | ||||||
| 07 | 13:56 | NW 24 | 16.09 | Fair | CLR | -2.8 | -5.6 | 81% | -9 | 76.53 | 1020.7 | ||||||
| 07 | 12:56 | NW 20 | 16.09 | A Few Clouds | FEW075 | -2.8 | -5.6 | 81% | -8 | 76.53 | 1020.8 | ||||||
| 07 | 11:56 | NW 19 | 16.09 | Fair | CLR | -3.3 | -6.7 | 78% | -9 | 76.56 | 1020.9 | ||||||
| 07 | 10:56 | NW 17 | 16.09 | Fair | CLR | -3.3 | -6.7 | 78% | -8 | 76.56 | 1021.0 | ||||||
| 07 | 09:56 | NW 13 | 16.09 | Mostly Cloudy | BKN080 | -3.3 | -6.7 | -3.3 | -6.1 | 78% | -8 | 76.56 | 1021.1 | ||||
| 07 | 08:56 | NW 9 | 16.09 | Mostly Cloudy | BKN085 | -3.9 | -7.2 | 78% | -7 | 76.56 | 1020.8 | ||||||
| 07 | 07:56 | Calm | 16.09 | Overcast | OVC095 | -5 | -6.1 | 92% | 76.53 | 1020.8 | |||||||
| 07 | 06:56 | N 6 | 16.09 | Fair | CLR | -5.6 | -6.1 | 96% | 76.53 | 1020.8 | |||||||
| 07 | 05:56 | NE 7 | 16.09 | Fair | CLR | -6.1 | -6.7 | 96% | -9 | 76.53 | 1020.7 | ||||||
| 07 | 04:56 | Calm | 16.09 | Fair | CLR | -5 | -6.1 | 92% | 76.5 | 1020.3 | |||||||
| 07 | 03:56 | S 13 | 16.09 | A Few Clouds | FEW011 | -3.9 | -5 | -1.7 | -3.9 | 92% | -8 | 76.5 | 1020.3 | ||||
| 07 | 02:56 | SW 17 | 16.09 | Mostly Cloudy | BKN050 | -2.8 | -3.9 | 92% | -8 | 76.48 | 1020.0 | ||||||
| 07 | 01:56 | W 11 | 16.09 | Overcast | SCT034 OVC048 | -2.2 | -3.3 | 92% | -6 | 76.48 | 1020.1 | ||||||
| 07 | 00:56 | W 13 | 16.09 | Overcast | OVC050 | -2.2 | -3.3 | 92% | -6 | 76.48 | 1019.9 | ||||||
| 06 | 23:56 | W 15 | 14.48 | Light Snow | OVC050 | -1.7 | -3.3 | 89% | -6 | 76.48 | 1019.8 | ||||||
| 06 | 22:56 | W 13 | 16.09 | Overcast | OVC050 | -1.7 | -3.9 | 85% | -6 | 76.45 | 1019.7 | ||||||
| 06 | 21:56 | W 15 | 16.09 | Overcast | OVC050 | -1.7 | -4.4 | 0 | -1.7 | 82% | -6 | 76.45 | 1019.6 | ||||
| 06 | 20:56 | W 17 | 16.09 | Fair | CLR | -1.1 | -4.4 | 79% | -6 | 76.45 | 1019.6 | ||||||
| 06 | 19:56 | W 15 | 16.09 | A Few Clouds | FEW042 | -0.6 | -4.4 | 76% | -5 | 76.45 | 1019.5 | ||||||
| 06 | 18:56 | W 13 | 16.09 | Fair | CLR | 0 | -5.6 | 66% | -4 | 76.43 | 1019.3 | ||||||
| 06 | 17:56 | W 11 | 16.09 | Overcast | OVC038 | -0.6 | -6.1 | 67% | -4 | 76.43 | 1019.1 | ||||||
| 06 | 16:56 | W 11 | 16.09 | Overcast | OVC036 | -0.6 | -6.1 | 67% | -4 | 76.43 | 1019.2 | ||||||
| 06 | 15:56 | NW 9 | 16.09 | Overcast | OVC038 | -1.1 | -6.1 | 0 | -2.8 | 69% | -4 | 76.43 | 1019.1 | ||||
| 06 | 14:56 | W 15 | 16.09 | Overcast | OVC040 | -0.6 | -3.9 | 79% | -5 | 76.4 | 1019.1 | ||||||
| 06 | 13:56 | SW 19 | 14.48 | Light Snow | OVC014 | -0.6 | -3.9 | 79% | -5 | 76.4 | 1019.0 | ||||||
| 06 | 12:56 | SW 19 | 14.48 | Light Snow | FEW011 OVC020 | -1.1 | -4.4 | 79% | -6 | 76.4 | 1018.8 | ||||||
| 06 | 11:56 | SW 24 | 14.48 | Light Snow | FEW011 OVC018 | -1.7 | -4.4 | 82% | -8 | 76.38 | 1018.5 | ||||||
| 06 | 10:56 | SW 24 | 14.48 | Light Snow | OVC016 | -2.2 | -5 | 81% | -8 | 76.35 | 1018.4 | ||||||
| 06 | 09:56 | SW 24 | 14.48 | Light Snow | FEW010 OVC016 | -2.8 | -5 | -2.8 | -3.3 | 85% | -9 | 76.33 | 1018.1 | ||||
| 06 | 08:56 | S 22 | 16.09 | Light Snow | OVC014 | -2.8 | -5 | 85% | -9 | 76.33 | 1017.8 | ||||||
| 06 | 07:56 | S 19 | 16.09 | Overcast | OVC014 | -2.8 | -5 | 85% | -8 | 76.3 | 1017.6 | ||||||
| 06 | 06:56 | SW 19 | 16.09 | Overcast | OVC014 | -3.3 | -5 | 88% | -9 | 76.28 | 1017.2 | ||||||
| 06 | 05:56 | S 17 | 16.09 | Overcast | OVC012 | -3.3 | -5 | 88% | -8 | 76.25 | 1017.0 | ||||||
| 06 | 04:56 | SW 20 | 16.09 | Overcast | OVC012 | -2.8 | -5 | 85% | -8 | 76.25 | 1016.8 | ||||||
| 06 | 03:56 | S 17 | 16.09 | Overcast | OVC014 | -2.8 | -5 | -1.7 | -2.8 | 85% | -8 | 76.23 | 1016.6 | ||||
| 06 | 02:56 | SW 24 | 16.09 | Overcast | OVC014 | -2.2 | -4.4 | 85% | -8 | 76.2 | 1016.3 | ||||||
| 06 | 01:56 | W 19 | 16.09 | Overcast | OVC016 | -2.2 | -3.9 | 88% | -7 | 76.17 | 1016.1 | ||||||
| 06 | 00:56 | SW 15 | 16.09 | Overcast | OVC018 | -2.2 | -3.3 | 92% | -7 | 76.17 | 1015.7 | ||||||
| 05 | 23:56 | SW 15 | 16.09 | Overcast | OVC018 | -2.2 | -3.3 | 92% | -7 | 76.15 | 1015.5 | ||||||
| 05 | 22:56 | S 17 | 16.09 | Overcast | OVC016 | -2.2 | -3.9 | 88% | -7 | 76.12 | 1015.3 | ||||||
| 05 | 21:56 | SW 19 | 16.09 | Overcast | OVC014 | -1.7 | -3.9 | -0.6 | -1.7 | 85% | -7 | 76.12 | 1015.1 | ||||
| 05 | 20:56 | W 19 | 16.09 | Overcast | OVC014 | -1.1 | -3.9 | 82% | -6 | 76.07 | 1014.7 | ||||||
| 05 | 19:56 | W 20 | 16.09 | Partly Cloudy | SCT014 | -1.1 | -3.9 | 82% | -6 | 76.07 | 1014.6 | ||||||
| 05 | 18:56 | W 17 | 16.09 | Fair | CLR | -0.6 | -3.9 | 79% | -5 | 76.05 | 1014.2 | ||||||
| 05 | 17:56 | W 19 | 16.09 | Fair | CLR | -0.6 | -3.9 | 79% | -5 | 76.02 | 1013.8 | ||||||
| 05 | 16:56 | W 24 | 16.09 | Fair | CLR | -0.6 | -3.9 | 79% | -6 | 76.02 | 1013.8 | ||||||
| 05 | 15:56 | W 24 | 16.09 | Fair | CLR | -1.1 | -4.4 | -1.1 | -2.8 | 79% | -7 | 76 | 1013.5 | ||||
| 05 | 14:56 | NW 30 | 16.09 | Fair | CLR | -1.7 | -5 | 78% | -8 | 75.97 | 1013.2 | ||||||
| 05 | 13:56 | NW 31 | 16.09 | Fair | CLR | -1.7 | -5 | 78% | -8 | 75.95 | 1012.9 | ||||||
| 05 | 12:56 | NW 33 | 16.09 | Fair and Breezy | CLR | -2.2 | -5 | 81% | -9 | 75.92 | 1012.5 | ||||||
| 05 | 11:56 | NW 35 | 16.09 | Fair and Breezy | CLR | -2.8 | -5.6 | 81% | -10 | 75.9 | 1012.3 | ||||||
| 05 | 10:56 | NW 30 | 16.09 | A Few Clouds | FEW017 | -2.8 | -5 | 85% | -10 | 75.9 | 1012.1 | ||||||
| 05 | 09:56 | NW 24 | 16.09 | Fair | CLR | -2.8 | -5.6 | -2.8 | -5 | 81% | -9 | 75.87 | 1011.8 | ||||
| 05 | 08:56 | NW 24 | 16.09 | Partly Cloudy | SCT017 | -2.8 | -5.6 | 81% | -9 | 75.84 | 1011.6 | ||||||
| 05 | 07:56 | NW 11 | 16.09 | Fair | CLR | -4.4 | -6.7 | 84% | -8 | 75.82 | 1011.1 | ||||||
| 05 | 06:56 | SW 7 | 16.09 | Fair | CLR | -5 | -6.7 | 88% | -8 | 75.79 | 1010.8 | ||||||
| 05 | 05:56 | NW 17 | 16.09 | Fair | CLR | -4.4 | -6.1 | 88% | -10 | 75.77 | 1010.4 | ||||||
| 05 | 04:56 | NW 20 | 16.09 | Fair | CLR | -3.3 | -5.6 | 84% | -9 | 75.72 | 1009.9 | ||||||
| 05 | 03:56 | NW 24 | 16.09 | Fair | CLR | -2.8 | -5 | 2.8 | -2.8 | 85% | -9 | 75.72 | 1009.8 | ||||
| 05 | 02:56 | NW 17 | 16.09 | Fair | CLR | -2.2 | -4.4 | 85% | -7 | 75.72 | 1009.8 | ||||||
| 05 | 01:56 | NW 20 | 16.09 | Mostly Cloudy | BKN060 | -1.7 | -3.9 | 85% | -7 | 75.72 | 1009.9 | ||||||
| 05 | 00:56 | NW 31 | 16.09 | Mostly Cloudy | BKN060 | -1.1 | -3.3 | 85% | -8 | 75.69 | 1009.6 | ||||||
| Date | Time (akdt) | Wind (kph) | Vis. (km) | Weather | Sky Cond. | Air | Dwpt | Max. | Min. | Relative Humidity | Wind Chill (°C) | Heat Index (°C) | altimeter (cm) | sea level (mb) | 1 hr | 3 hr | 6 hr |
| 6 hour | |||||||||||||||||
| Temperature (ºC) | Pressure | Precipitation (cm) | |||||||||||||||